Latest Weather Observations for Keith West

IDS60801

Issued at 4:01 pm CST Sunday 23 September 2018 (issued every 10 minutes, with the page automatically refreshed every 10 minutes)

About weather observations | Map of weather stations | Latest weather observations for SA | Other Formats
Station Details ID: 025557 Name: MUNKORA Lat: -36.11 Lon: 140.33 Height: 27.0 m
Data from the previous 72 hours. | See also: Recent months at Keith West
Date/Time
CST
Temp
°C
App
Temp
°C
Dew
Point
°C
Rel
Hum
%
Delta-T
°C
Wind Press
QNH
hPa
Press
MSL
hPa
Rain since
9am
mm
Dir  Spd
km/h
Gust
km/h
Spd
kts
Gust
kts
23/04:00pm 15.6 10.8 4.9 49 5.0 SSE 19 26 10 14 1030.2 1030.3 0.0
23/03:30pm 15.9 12.1 5.8 51 4.8 SSE 15 24 8 13 1030.3 1030.4 0.0
23/03:00pm 15.7 11.4 5.3 50 4.9 S 17 24 9 13 1030.3 1030.4 0.0
23/02:30pm 15.9 11.8 6.1 52 4.7 SSE 17 24 9 13 1030.4 1030.5 0.0
23/02:00pm 15.9 11.8 6.1 52 4.7 SSE 17 24 9 13 1030.7 1030.7 0.0
23/01:30pm 16.2 12.6 6.6 53 4.7 S 15 24 8 13 1031.0 1031.0 0.0
23/01:00pm 16.1 12.4 6.3 52 4.8 SSE 15 20 8 11 1031.1 1031.1 0.0
23/12:30pm 16.6 13.2 7.8 56 4.4 SSE 15 24 8 13 1031.4 1031.4 0.0
23/12:00pm 16.3 12.6 8.0 58 4.2 S 17 28 9 15 1031.7 1031.7 0.0
23/11:30am 15.7 11.5 7.5 58 4.0 S 19 24 10 13 1032.0 1032.0 0.0
23/11:00am 15.6 12.1 7.1 57 4.2 SSE 15 24 8 13 1032.2 1032.2 0.0
23/10:30am 14.9 11.1 7.7 62 3.5 SSE 17 24 9 13 1032.3 1032.3 0.0
23/10:00am 13.6 9.4 7.6 67 2.9 S 19 26 10 14 1032.4 1032.4 0.0
23/09:30am 13.5 9.4 7.9 69 2.7 SSE 19 26 10 14 1032.3 1032.3 0.0
23/09:00am 12.7 10.1 9.5 81 1.6 S 13 20 7 11 1032.3 1032.3 0.0
23/08:30am 11.8 9.0 9.9 88 1.0 S 15 22 8 12 1032.1 1032.1 0.0
23/08:00am 11.4 9.1 10.5 94 0.5 S 13 24 7 13 1031.8 1031.8 0.0
23/07:30am 10.8 7.6 10.0 95 0.4 S 17 24 9 13 1031.5 1031.5 0.0
23/07:00am 10.0 8.6 9.4 96 0.3 SSW 7 9 4 5 1031.2 1031.2 0.0
23/06:30am 8.9 7.8 8.3 96 0.3 SSW 4 7 2 4 1030.8 1030.8 0.0
23/06:00am 7.4 5.9 6.7 95 0.3 SSE 4 6 2 3 1030.1 1030.2 0.0
23/05:30am 6.4 4.7 5.7 95 0.3 SW 4 6 2 3 1030.0 1030.1 0.0
23/05:00am 5.9 4.4 5.2 95 0.3 WSW 2 4 1 2 1029.8 1029.9 0.0
23/04:30am 4.1 2.7 3.4 95 0.3 CALM 0 4 0 2 1029.4 1029.5 0.0
23/04:00am 4.1 1.5 3.4 95 0.3 NNW 6 7 3 4 1029.0 1029.1 0.0
23/03:30am 4.7 2.6 3.8 94 0.4 N 4 4 2 2 1028.9 1029.0 0.0
23/03:00am 5.9 4.4 5.2 95 0.3 NNE 2 4 1 2 1028.9 1029.0 0.0
23/02:30am 3.5 1.2 2.8 95 0.3 N 4 4 2 2 1029.1 1029.2 0.0
23/02:00am 3.0 0.6 2.3 95 0.3 N 4 4 2 2 1029.1 1029.2 0.0
23/01:30am 2.8 0.0 2.1 95 0.3 NNW 6 6 3 3 1029.4 1029.5 0.0
23/01:00am 2.8 1.1 1.9 94 0.4 CALM 0 0 0 0 1029.5 1029.6 0.0
23/12:30am 3.5 1.9 2.6 94 0.4 CALM 0 0 0 0 1029.4 1029.5 0.0
23/12:00am 3.9 2.4 3.0 94 0.4 CALM 0 0 0 0 1029.4 1029.5 0.0
 
Date/Time
CST
Temp
°C
App
Temp
°C
Dew
Point
°C
Rel
Hum
%
Delta-T
°C
Wind Press
QNH
hPa
Press
MSL
hPa
Rain since
9am
mm
Dir  Spd
km/h
Gust
km/h
Spd
kts
Gust
kts
22/11:30pm 4.1 2.6 3.2 94 0.4 CALM 0 0 0 0 1029.3 1029.4 0.0
22/11:00pm 3.4 1.0 2.4 93 0.4 WSW 4 4 2 2 1029.3 1029.4 0.0
22/10:30pm 5.0 2.5 4.0 93 0.4 SW 6 6 3 3 1029.3 1029.4 0.0
22/10:00pm 8.9 7.3 7.8 93 0.5 WSW 6 6 3 3 1029.3 1029.4 0.0
22/09:30pm 8.2 5.8 7.0 92 0.6 WSW 9 9 5 5 1029.3 1029.4 0.0
22/09:00pm 7.7 5.5 6.3 91 0.6 WSW 7 9 4 5 1029.2 1029.3 0.0
22/08:30pm 8.4 6.3 6.5 88 0.9 WSW 7 7 4 4 1028.9 1029.0 0.0
22/08:00pm 9.7 7.0 7.5 86 1.0 SW 11 15 6 8 1028.7 1028.8 0.0
22/07:30pm 10.4 8.2 8.0 85 1.2 SW 9 13 5 7 1028.4 1028.5 0.0
22/07:00pm 10.9 8.4 8.1 83 1.4 SW 11 13 6 7 1028.2 1028.3 0.0
22/06:30pm 11.4 9.2 7.9 79 1.7 WSW 9 11 5 6 1028.0 1028.1 0.0
22/06:00pm 12.9 10.5 8.6 75 2.1 SW 11 15 6 8 1027.7 1027.8 0.0
22/05:30pm 14.5 11.4 8.9 69 2.8 SW 15 20 8 11 1027.2 1027.3 0.0
22/05:00pm 16.3 13.3 9.3 63 3.6 SW 15 20 8 11 1026.8 1026.9 0.0
22/04:30pm 17.2 13.5 9.4 60 4.0 SW 19 24 10 13 1026.4 1026.5 0.0
22/04:00pm 18.6 14.9 9.4 55 4.8 WSW 19 28 10 15 1026.2 1026.3 0.0
22/03:30pm 19.0 14.9 8.6 51 5.4 WSW 20 30 11 16 1026.1 1026.2 0.0
22/03:00pm 19.2 14.5 7.9 48 5.8 WSW 22 32 12 17 1026.1 1026.2 0.0
22/02:30pm 20.4 15.0 8.1 45 6.4 SW 26 33 14 18 1025.9 1026.0 0.0
22/02:00pm 21.5 17.7 9.7 47 6.4 WSW 20 32 11 17 1025.8 1025.9 0.0
22/01:30pm 21.5 18.7 10.0 48 6.2 W 15 24 8 13 1026.0 1026.1 0.0
22/01:00pm 20.5 18.9 10.3 52 5.5 W 9 19 5 10 1026.3 1026.4 0.0
22/12:30pm 20.7 18.6 11.1 54 5.3 WSW 13 20 7 11 1026.9 1027.0 0.0
22/12:00pm 19.8 18.3 11.8 60 4.4 WSW 11 15 6 8 1027.2 1027.3 0.0
22/11:30am 18.8 17.8 10.9 60 4.3 NW 7 15 4 8 1027.4 1027.5 0.0
22/11:00am 17.9 16.0 10.5 62 4.0 W 11 17 6 9 1027.6 1027.7 0.0
22/10:30am 17.0 15.5 10.6 66 3.4 W 9 15 5 8 1028.0 1028.1 0.0
22/10:00am 16.2 15.3 11.2 72 2.7 W 7 11 4 6 1028.1 1028.2 0.0
22/09:30am 13.8 13.5 11.3 85 1.3 WSW 4 6 2 3 1028.2 1028.3 0.0
22/09:00am 11.9 11.8 10.8 93 0.6 WSW 2 4 1 2 1028.5 1028.6 0.0
22/08:30am 10.5 10.1 9.6 94 0.4 NNE 2 4 1 2 1028.3 1028.4 0.0
22/08:00am 8.8 8.0 8.0 95 0.4 NE 2 4 1 2 1028.1 1028.2 0.0
22/07:30am 7.0 5.8 6.3 95 0.3 SE 2 4 1 2 1027.8 1027.9 0.0
22/07:00am 4.0 1.8 3.6 97 0.2 S 4 4 2 2 1027.7 1027.8 0.0
22/06:30am 1.0 -0.9 0.4 96 0.2 CALM 0 0 0 0 1027.2 1027.3 0.0
22/06:00am 1.4 -0.5 0.8 96 0.2 CALM 0 0 0 0 1026.8 1026.9 0.0
22/05:30am 3.0 1.4 2.4 96 0.2 CALM 0 2 0 1 1026.6 1026.7 0.0
22/05:00am 1.3 -1.3 0.7 96 0.2 NE 4 4 2 2 1026.3 1026.4 0.0
22/04:30am 1.7 -0.1 1.0 95 0.3 CALM 0 2 0 1 1026.3 1026.4 0.0
22/04:00am 2.2 -0.9 1.6 96 0.2 ENE 7 9 4 5 1026.1 1026.2 0.0
22/03:30am 1.3 -0.6 0.6 95 0.3 CALM 0 0 0 0 1026.1 1026.2 0.0
22/03:00am 2.8 0.8 2.1 95 0.3 NE 2 2 1 1 1026.3 1026.4 0.0
22/02:30am 3.1 -0.2 2.5 96 0.2 NE 9 11 5 6 1026.3 1026.4 0.0
22/02:00am 1.6 -0.7 0.7 94 0.3 S 2 4 1 2 1026.8 1026.9 0.0
22/01:30am 1.7 -0.5 0.8 94 0.3 S 2 2 1 1 1027.1 1027.2 0.0
22/01:00am 2.0 -0.2 1.1 94 0.3 S 2 4 1 2 1027.4 1027.5 0.0
22/12:30am 3.1 1.4 2.1 93 0.4 CALM 0 0 0 0 1027.5 1027.6 0.0
22/12:00am 2.5 0.7 1.5 93 0.4 CALM 0 0 0 0 1027.4 1027.5 0.0
 
Date/Time
CST
Temp
°C
App
Temp
°C
Dew
Point
°C
Rel
Hum
%
Delta-T
°C
Wind Press
QNH
hPa
Press
MSL
hPa
Rain since
9am
mm
Dir  Spd
km/h
Gust
km/h
Spd
kts
Gust
kts
21/11:30pm 3.4 1.8 2.4 93 0.4 CALM 0 0 0 0 1027.5 1027.6 0.0
21/11:00pm 2.9 1.2 1.7 92 0.5 CALM 0 0 0 0 1027.8 1027.9 0.0
21/10:30pm 3.7 2.1 2.4 91 0.5 CALM 0 0 0 0 1027.9 1028.0 0.0
21/10:00pm 4.2 2.6 2.7 90 0.6 CALM 0 0 0 0 1027.9 1028.0 0.0
21/09:30pm 4.1 2.5 2.5 89 0.6 CALM 0 0 0 0 1028.0 1028.1 0.0
21/09:00pm 5.0 2.7 3.0 87 0.8 S 4 4 2 2 1027.8 1027.9 0.0
21/08:30pm 7.9 5.8 6.0 88 0.9 S 6 7 3 4 1027.7 1027.8 0.0
21/08:00pm 9.2 7.4 7.2 87 0.9 SSE 6 6 3 3 1027.6 1027.7 0.0
21/07:30pm 9.5 8.1 7.1 85 1.1 S 4 6 2 3 1027.4 1027.5 0.0
21/07:00pm 9.7 7.3 7.0 83 1.3 S 9 11 5 6 1027.0 1027.1 0.0
21/06:30pm 10.4 7.7 7.3 81 1.5 S 11 13 6 7 1026.5 1026.6 0.0
21/06:00pm 12.5 9.7 8.6 77 1.9 SSW 13 15 7 8 1026.2 1026.3 0.0
21/05:30pm 15.1 13.3 9.5 69 2.9 SSW 9 13 5 7 1026.1 1026.2 0.0
21/05:00pm 16.9 15.2 9.8 63 3.7 SW 9 13 5 7 1025.8 1025.9 0.0
21/04:30pm 17.7 16.2 9.1 57 4.5 WSW 7 13 4 7 1025.7 1025.8 0.0
21/04:00pm 18.3 16.7 8.8 54 4.9 W 7 15 4 8 1025.7 1025.8 0.0
21/03:30pm 17.6 15.7 9.0 57 4.4 WNW 9 17 5 9 1025.8 1025.9 0.0
21/03:00pm 17.4 15.7 8.5 56 4.5 WNW 7 15 4 8 1025.9 1026.0 0.0
21/02:30pm 16.8 14.5 9.0 60 4.0 WNW 11 20 6 11 1026.2 1026.3 0.0
21/02:00pm 17.2 15.1 9.6 61 4.0 W 11 20 6 11 1026.6 1026.7 0.0
21/01:30pm 16.4 13.7 9.1 62 3.7 WNW 13 20 7 11 1027.1 1027.2 0.0
21/01:00pm 16.9 13.7 10.1 64 3.6 NW 17 32 9 17 1027.4 1027.5 0.0
21/12:30pm 16.1 12.7 9.1 63 3.6 NW 17 30 9 16 1027.8 1027.9 0.0
21/12:00pm 15.0 11.8 10.0 72 2.6 NW 17 22 9 12 1028.2 1028.3 0.0
21/11:30am 15.3 13.0 10.5 73 2.5 NNW 13 19 7 10 1028.4 1028.5 0.0
21/11:00am 15.1 12.8 10.3 73 2.5 NNW 13 19 7 10 1028.6 1028.7 0.0
21/10:30am 14.3 10.9 9.1 71 2.6 WNW 17 20 9 11 1028.6 1028.7 0.0
21/10:00am 14.1 10.2 8.7 70 2.7 NW 19 24 10 13 1028.7 1028.8 0.0
21/09:30am 13.6 9.8 9.1 74 2.3 NW 19 26 10 14 1028.6 1028.7 0.0
21/09:00am 13.5 10.1 9.0 74 2.3 WNW 17 24 9 13 1028.4 1028.5 0.2
21/08:30am 13.1 9.6 10.3 83 1.4 W 19 22 10 12 1028.3 1028.4 0.2
21/08:00am 12.7 10.0 10.2 85 1.3 WNW 15 20 8 11 1028.0 1028.1 0.2
21/07:30am 12.1 9.9 10.7 91 0.7 NNW 13 15 7 8 1027.7 1027.8 0.2
21/07:00am 11.4 9.4 10.1 92 0.7 NNW 11 17 6 9 1027.4 1027.5 0.2
21/06:30am 10.5 9.1 9.6 94 0.4 NNW 7 11 4 6 1027.1 1027.2 0.2
21/06:00am 9.9 8.9 9.0 94 0.4 NNW 4 6 2 3 1026.8 1026.9 0.2
21/05:30am 9.9 8.5 8.8 93 0.5 N 6 7 3 4 1026.5 1026.6 0.2
21/05:00am 10.4 9.6 9.5 94 0.5 N 4 6 2 3 1026.3 1026.4 0.2
21/04:30am 10.5 9.1 9.6 94 0.4 NNW 7 9 4 5 1026.1 1026.2 0.2
21/04:00am 10.3 9.1 9.4 94 0.4 N 6 7 3 4 1026.0 1026.1 0.2
21/03:30am 10.3 9.1 9.4 94 0.4 NNW 6 7 3 4 1025.9 1026.0 0.2
21/03:00am 10.3 8.9 9.4 94 0.4 NNW 7 11 4 6 1026.0 1026.1 0.2
21/02:30am 10.2 8.7 9.1 93 0.5 NNW 7 9 4 5 1026.1 1026.2 0.2
21/02:00am 10.0 8.4 8.9 93 0.5 NNW 7 9 4 5 1026.3 1026.4 0.2
21/01:30am 9.7 8.0 8.5 92 0.6 NW 7 9 4 5 1026.5 1026.6 0.2
21/01:00am 9.2 7.9 7.6 90 0.8 NNW 4 6 2 3 1026.6 1026.7 0.2
21/12:30am 9.7 9.3 8.1 90 0.8 CALM 0 0 0 0 1026.4 1026.5 0.2
21/12:00am 10.2 9.5 8.5 89 0.8 NNW 2 4 1 2 1026.3 1026.4 0.2
 
Date/Time
CST
Temp
°C
App
Temp
°C
Dew
Point
°C
Rel
Hum
%
Delta-T
°C
Wind Press
QNH
hPa
Press
MSL
hPa
Rain since
9am
mm
Dir  Spd
km/h
Gust
km/h
Spd
kts
Gust
kts
20/11:30pm 10.4 8.8 8.7 89 0.8 NNW 7 9 4 5 1026.4 1026.5 0.2
20/11:00pm 10.3 9.2 8.4 88 0.9 N 4 4 2 2 1026.4 1026.5 0.2
20/10:30pm 10.2 9.0 8.1 87 1.0 N 4 6 2 3 1026.4 1026.5 0.2
20/10:00pm 10.0 8.4 7.8 86 1.1 NNW 6 6 3 3 1026.5 1026.6 0.2
20/09:30pm 9.9 8.2 7.5 85 1.1 NNW 6 7 3 4 1026.5 1026.6 0.2
20/09:00pm 10.5 9.3 7.9 84 1.2 W 4 6 2 3 1026.3 1026.4 0.2
20/08:30pm 10.5 8.7 8.1 85 1.2 W 7 11 4 6 1026.1 1026.2 0.2
20/08:00pm 10.7 8.5 7.9 83 1.4 WSW 9 13 5 7 1026.1 1026.2 0.2
20/07:30pm 11.0 9.4 7.9 81 1.5 W 6 7 3 4 1025.7 1025.8 0.2
20/07:00pm 12.0 9.5 8.1 77 1.9 WSW 11 15 6 8 1025.4 1025.5 0.2
20/06:30pm 12.3 9.6 7.4 72 2.4 WSW 11 17 6 9 1024.9 1025.0 0.2
20/06:00pm 12.5 9.4 7.4 71 2.5 WSW 13 17 7 9 1024.7 1024.8 0.2
20/05:30pm 12.7 10.0 7.4 70 2.6 WSW 11 17 6 9 1024.4 1024.5 0.2
20/05:00pm 12.9 9.5 7.6 70 2.6 W 15 20 8 11 1024.2 1024.3 0.2
20/04:30pm 13.3 9.8 7.3 67 2.9 WSW 15 19 8 10 1023.7 1023.7 0.0

Other Formats:

Comma delimited format used in spreadsheet applications
http://www.bom.gov.au/fwo/IDS60801/IDS60801.95815.axf

JavaScript Object Notation format (JSON) in row-major order
http://www.bom.gov.au/fwo/IDS60801/IDS60801.95815.json